createdAt,value
2018-11-01T00:00:43.868Z,6.41
2018-11-01T00:01:44.019Z,6.4
2018-11-01T00:02:44.181Z,6.4
2018-11-01T00:03:43.837Z,6.43
2018-11-01T00:04:43.857Z,6.42
2018-11-01T00:05:43.858Z,6.42
2018-11-01T00:06:43.926Z,6.45
2018-11-01T00:07:43.962Z,6.47
2018-11-01T00:08:43.875Z,6.42
2018-11-01T00:09:43.886Z,6.39
2018-11-01T00:10:43.839Z,6.42
2018-11-01T00:11:44.283Z,6.41
2018-11-01T00:12:43.875Z,6.45
2018-11-01T00:13:43.850Z,6.43
2018-11-01T00:14:44.070Z,6.43
2018-11-01T00:15:43.850Z,6.44
2018-11-01T00:16:43.854Z,6.42
2018-11-01T00:17:43.834Z,6.45
2018-11-01T00:18:43.864Z,6.47
2018-11-01T00:19:43.845Z,6.45
2018-11-01T00:20:43.828Z,6.45
2018-11-01T00:21:43.919Z,6.43
2018-11-01T00:22:43.822Z,6.41
2018-11-01T00:23:43.827Z,6.43
2018-11-01T00:24:43.847Z,6.4
2018-11-01T00:25:43.812Z,6.41
2018-11-01T00:26:43.851Z,6.42
2018-11-01T00:27:43.844Z,6.4
2018-11-01T00:28:43.808Z,6.4
2018-11-01T00:29:43.797Z,6.44
2018-11-01T00:30:43.822Z,6.42
2018-11-01T00:31:44.214Z,6.43
2018-11-01T00:32:43.880Z,6.41
2018-11-01T00:33:43.807Z,6.41
2018-11-01T00:34:43.814Z,6.39
2018-11-01T00:35:43.817Z,6.42
2018-11-01T00:36:43.869Z,6.41
2018-11-01T00:37:43.811Z,6.39
2018-11-01T00:38:43.862Z,6.41
2018-11-01T00:39:43.851Z,6.38
2018-11-01T00:40:43.796Z,6.39
2018-11-01T00:41:43.799Z,6.4
2018-11-01T00:42:43.896Z,6.39
2018-11-01T00:43:44.052Z,6.39
2018-11-01T00:44:43.808Z,6.37
2018-11-01T00:45:43.771Z,6.4
2018-11-01T00:46:43.816Z,6.4
2018-11-01T00:47:43.913Z,6.42
2018-11-01T00:48:43.797Z,6.42
2018-11-01T00:49:43.882Z,6.4
2018-11-01T00:50:43.976Z,6.4
2018-11-01T00:51:43.783Z,6.41
2018-11-01T00:52:43.878Z,6.39
2018-11-01T00:53:43.803Z,6.39
2018-11-01T00:54:43.813Z,6.38
2018-11-01T00:55:43.780Z,6.38
2018-11-01T00:56:43.929Z,6.4
2018-11-01T00:57:43.848Z,6.4
2018-11-01T00:58:43.741Z,6.38
2018-11-01T00:59:44.213Z,6.42
2018-11-01T01:00:44.054Z,6.41
2018-11-01T01:01:43.776Z,6.41
2018-11-01T01:02:43.882Z,6.4
2018-11-01T01:03:43.739Z,6.39
2018-11-01T01:04:43.775Z,6.38
2018-11-01T01:05:43.792Z,6.41
2018-11-01T01:06:43.783Z,6.42
2018-11-01T01:07:43.842Z,6.41
2018-11-01T01:08:43.804Z,6.43
2018-11-01T01:09:43.728Z,6.43
2018-11-01T01:10:43.751Z,6.42
2018-11-01T01:11:43.850Z,6.43
2018-11-01T01:12:43.766Z,6.42
2018-11-01T01:13:44.167Z,6.42
2018-11-01T01:14:43.801Z,6.42
2018-11-01T01:15:43.811Z,6.41
2018-11-01T01:16:43.752Z,6.39
2018-11-01T01:17:43.784Z,6.42
2018-11-01T01:18:43.999Z,6.43
2018-11-01T01:19:43.724Z,6.44
2018-11-01T01:20:43.770Z,6.41
2018-11-01T01:21:43.869Z,6.44
2018-11-01T01:22:43.755Z,6.42
2018-11-01T01:23:43.783Z,6.41
2018-11-01T01:24:43.757Z,6.43
2018-11-01T01:25:43.810Z,6.42
2018-11-01T01:26:43.741Z,6.4
2018-11-01T01:27:43.736Z,6.44
2018-11-01T01:28:43.751Z,6.44
2018-11-01T01:29:44.177Z,6.43
2018-11-01T01:30:43.755Z,6.43
2018-11-01T01:31:43.749Z,6.43
2018-11-01T01:32:43.812Z,6.42
2018-11-01T01:33:43.707Z,6.4
2018-11-01T01:34:44.693Z,6.39
2018-11-01T01:35:43.753Z,6.39
2018-11-01T01:36:43.811Z,6.39
2018-11-01T01:37:43.722Z,6.39
2018-11-01T01:38:44.240Z,6.4
2018-11-01T01:39:43.729Z,6.41
2018-11-01T01:40:43.716Z,6.41
2018-11-01T01:41:43.724Z,6.4
2018-11-01T01:42:43.791Z,6.43
2018-11-01T01:43:43.729Z,6.41
2018-11-01T01:44:43.705Z,6.39
2018-11-01T01:45:43.817Z,6.38
2018-11-01T01:46:43.754Z,6.4
2018-11-01T01:47:43.741Z,6.42
2018-11-01T01:48:43.745Z,6.42
2018-11-01T01:49:43.686Z,6.42
2018-11-01T01:50:44.554Z,6.44
2018-11-01T01:51:44.112Z,6.47
2018-11-01T01:52:43.674Z,6.44
2018-11-01T01:53:43.699Z,6.42
2018-11-01T01:54:43.740Z,6.4
2018-11-01T01:55:43.716Z,6.39
2018-11-01T01:56:43.676Z,6.41
2018-11-01T01:57:43.788Z,6.42
2018-11-01T01:58:43.788Z,6.41
2018-11-01T01:59:43.730Z,6.44
2018-11-01T02:00:44.299Z,6.43
2018-11-01T02:01:44.073Z,6.44
2018-11-01T02:02:43.692Z,6.44
2018-11-01T02:03:43.695Z,6.44
2018-11-01T02:04:43.683Z,6.46
2018-11-01T02:05:43.679Z,6.43
2018-11-01T02:06:43.668Z,6.44
2018-11-01T02:07:43.764Z,6.42
2018-11-01T02:08:43.712Z,6.4
2018-11-01T02:09:43.660Z,6.42
2018-11-01T02:10:43.666Z,6.43
2018-11-01T02:11:44.448Z,6.44
2018-11-01T02:12:43.690Z,6.44
2018-11-01T02:13:43.661Z,6.45
2018-11-01T02:14:43.763Z,6.45
2018-11-01T02:15:43.751Z,6.4
2018-11-01T02:16:43.799Z,6.41
2018-11-01T02:17:43.690Z,6.42
2018-11-01T02:18:43.636Z,6.47
2018-11-01T02:19:43.909Z,6.46
2018-11-01T02:20:43.663Z,6.45
2018-11-01T02:21:43.658Z,6.41
2018-11-01T02:22:43.754Z,6.41
2018-11-01T02:23:43.672Z,6.4
2018-11-01T02:24:43.791Z,6.41
2018-11-01T02:25:43.652Z,6.45
2018-11-01T02:26:43.637Z,6.45
2018-11-01T02:27:43.958Z,6.44
2018-11-01T02:28:43.692Z,6.44
2018-11-01T02:29:43.659Z,6.4
2018-11-01T02:30:43.660Z,6.4
2018-11-01T02:31:43.781Z,6.39
2018-11-01T02:32:43.682Z,6.4
2018-11-01T02:33:43.699Z,6.4
2018-11-01T02:34:43.645Z,6.39
2018-11-01T02:35:43.648Z,6.4
2018-11-01T02:36:43.604Z,6.41
2018-11-01T02:37:44.117Z,6.4
2018-11-01T02:38:44.502Z,6.41
2018-11-01T02:39:43.647Z,6.4
2018-11-01T02:40:43.671Z,6.42
2018-11-01T02:41:43.606Z,6.41
2018-11-01T02:42:43.624Z,6.41
2018-11-01T02:43:43.832Z,6.38
2018-11-01T02:44:43.744Z,6.37
2018-11-01T02:45:43.614Z,6.38
2018-11-01T02:46:43.819Z,6.43
2018-11-01T02:47:44.188Z,6.44
2018-11-01T02:48:43.729Z,6.44
2018-11-01T02:49:43.605Z,6.42
2018-11-01T02:50:43.621Z,6.38
2018-11-01T02:51:43.618Z,6.38
2018-11-01T02:52:43.941Z,6.38
2018-11-01T02:53:43.716Z,6.4
2018-11-01T02:54:43.595Z,6.39
2018-11-01T02:55:43.569Z,6.42
2018-11-01T02:56:43.616Z,6.39
2018-11-01T02:57:43.691Z,6.38
2018-11-01T02:58:44.094Z,6.38
2018-11-01T02:59:44.380Z,6.38
2018-11-01T03:00:43.574Z,6.39
2018-11-01T03:01:43.671Z,6.4
2018-11-01T03:02:43.633Z,6.38
2018-11-01T03:03:43.610Z,6.38
2018-11-01T03:04:43.595Z,6.39
2018-11-01T03:05:43.670Z,6.37
2018-11-01T03:06:43.598Z,6.32
2018-11-01T03:07:43.656Z,6.32
2018-11-01T03:08:43.588Z,6.33
2018-11-01T03:09:43.755Z,6.32
2018-11-01T03:10:43.596Z,6.29
2018-11-01T03:11:43.602Z,6.27
2018-11-01T03:12:43.635Z,6.29
2018-11-01T03:13:43.578Z,6.29
2018-11-01T03:14:43.599Z,6.28
2018-11-01T03:15:43.620Z,6.31
2018-11-01T03:16:43.635Z,6.3
2018-11-01T03:17:43.639Z,6.29
2018-11-01T03:18:43.594Z,6.31
2018-11-01T03:19:43.741Z,6.31
2018-11-01T03:20:43.603Z,6.3
2018-11-01T03:21:43.597Z,6.29
2018-11-01T03:22:43.930Z,6.29
2018-11-01T03:23:43.556Z,6.31
2018-11-01T03:24:43.726Z,6.27
2018-11-01T03:25:43.579Z,6.27
2018-11-01T03:26:44.552Z,6.24
2018-11-01T03:27:43.624Z,6.21
2018-11-01T03:28:43.874Z,6.24
2018-11-01T03:29:43.598Z,6.27
2018-11-01T03:30:43.576Z,6.23
2018-11-01T03:31:43.590Z,6.23
2018-11-01T03:32:43.579Z,6.3
2018-11-01T03:33:43.591Z,6.25
2018-11-01T03:34:43.533Z,6.26
2018-11-01T03:35:44.055Z,6.29
2018-11-01T03:36:43.726Z,6.28
2018-11-01T03:37:43.633Z,6.29
2018-11-01T03:38:43.922Z,6.25
2018-11-01T03:39:43.564Z,6.3
2018-11-01T03:40:43.565Z,6.29
2018-11-01T03:41:43.597Z,6.29
2018-11-01T03:42:43.710Z,6.25
2018-11-01T03:43:43.528Z,6.25
2018-11-01T03:44:43.527Z,6.26
2018-11-01T03:45:44.477Z,6.27
2018-11-01T03:46:43.555Z,6.26
2018-11-01T03:47:43.579Z,6.25
2018-11-01T03:48:43.546Z,6.27
2018-11-01T03:49:43.668Z,6.23
2018-11-01T03:50:43.899Z,6.23
2018-11-01T03:51:44.024Z,6.21
2018-11-01T03:52:43.596Z,6.24
2018-11-01T03:53:44.562Z,6.24
2018-11-01T03:54:43.541Z,6.23
2018-11-01T03:55:43.530Z,6.25
2018-11-01T03:56:43.594Z,6.22
2018-11-01T03:57:43.548Z,6.24
2018-11-01T03:58:43.673Z,6.28
2018-11-01T03:59:43.522Z,6.26
2018-11-01T04:00:43.548Z,6.25
2018-11-01T04:01:43.559Z,6.25
2018-11-01T04:02:43.578Z,6.26
2018-11-01T04:03:44.062Z,6.25
2018-11-01T04:04:43.515Z,6.27
2018-11-01T04:05:43.502Z,6.24
2018-11-01T04:06:43.494Z,6.2
2018-11-01T04:07:43.509Z,6.26
2018-11-01T04:08:43.536Z,6.26
2018-11-01T04:09:43.491Z,6.23
2018-11-01T04:10:43.540Z,6.23
2018-11-01T04:11:43.590Z,6.24
2018-11-01T04:12:43.548Z,6.23
2018-11-01T04:13:44.353Z,6.2
2018-11-01T04:14:43.523Z,6.18
2018-11-01T04:15:43.582Z,6.23
2018-11-01T04:16:43.837Z,6.22
2018-11-01T04:17:43.508Z,6.24
2018-11-01T04:18:43.508Z,6.23
2018-11-01T04:19:43.547Z,6.2
2018-11-01T04:20:43.527Z,6.21
2018-11-01T04:21:43.482Z,6.23
2018-11-01T04:22:43.501Z,6.25
2018-11-01T04:23:43.530Z,6.21
2018-11-01T04:24:43.477Z,6.2
2018-11-01T04:25:43.997Z,6.2
2018-11-01T04:26:43.454Z,6.15
2018-11-01T04:27:43.911Z,6.2
2018-11-01T04:28:43.668Z,6.23
2018-11-01T04:29:43.472Z,6.24
2018-11-01T04:30:43.444Z,6.25
2018-11-01T04:31:43.496Z,6.26
2018-11-01T04:32:43.463Z,6.24
2018-11-01T04:33:45.478Z,6.23
2018-11-01T04:34:43.494Z,6.24
2018-11-01T04:35:43.465Z,6.22
2018-11-01T04:36:43.453Z,6.19
2018-11-01T04:37:43.523Z,6.15
2018-11-01T04:38:43.556Z,6.15
2018-11-01T04:39:43.520Z,6.12
2018-11-01T04:40:44.826Z,6.1
2018-11-01T04:41:43.580Z,6.12
2018-11-01T04:42:43.517Z,6.18
2018-11-01T04:43:43.459Z,6.18
2018-11-01T04:44:43.477Z,6.12
2018-11-01T04:45:43.452Z,6.17
2018-11-01T04:46:43.446Z,6.16
2018-11-01T04:47:45.015Z,6.13
2018-11-01T04:48:43.517Z,6.14
2018-11-01T04:49:43.822Z,6.18
2018-11-01T04:50:43.458Z,6.14
2018-11-01T04:51:43.445Z,6.13
2018-11-01T04:52:43.450Z,6.1
2018-11-01T04:53:43.416Z,6.1
2018-11-01T04:54:43.429Z,6.09
2018-11-01T04:55:43.459Z,6.09
2018-11-01T04:56:43.556Z,6.08
2018-11-01T04:57:43.459Z,6.17
2018-11-01T04:58:43.434Z,6.15
2018-11-01T04:59:43.501Z,6.14
2018-11-01T05:00:43.403Z,6.12
2018-11-01T05:01:43.467Z,6.14
2018-11-01T05:02:43.522Z,6.12
2018-11-01T05:03:43.796Z,6.17
2018-11-01T05:04:43.516Z,6.15
2018-11-01T05:05:43.417Z,6.14
2018-11-01T05:06:43.977Z,6.11
2018-11-01T05:07:43.432Z,6.14
2018-11-01T05:08:43.466Z,6.12
2018-11-01T05:09:43.397Z,6.11
2018-11-01T05:10:43.391Z,6.12
2018-11-01T05:11:43.407Z,6.17
2018-11-01T05:12:43.811Z,6.18
2018-11-01T05:13:43.472Z,6.19
2018-11-01T05:14:43.342Z,6.17
2018-11-01T05:15:43.599Z,6.19
2018-11-01T05:16:43.485Z,6.14
2018-11-01T05:17:43.691Z,6.14
2018-11-01T05:18:43.376Z,6.12
2018-11-01T05:19:43.370Z,6.07
2018-11-01T05:20:43.445Z,6.08
2018-11-01T05:21:43.406Z,6.07
2018-11-01T05:22:43.519Z,6.08
2018-11-01T05:23:43.381Z,6.08
2018-11-01T05:24:43.820Z,6.07
2018-11-01T05:25:44.009Z,6.09
2018-11-01T05:26:43.781Z,6.08
2018-11-01T05:27:43.447Z,6.09
2018-11-01T05:28:43.375Z,6.09
2018-11-01T05:29:43.393Z,6.09
2018-11-01T05:30:43.367Z,6.11
2018-11-01T05:31:43.382Z,6.11
2018-11-01T05:32:43.371Z,6.11
2018-11-01T05:33:43.407Z,6.11
2018-11-01T05:34:43.445Z,6.12
2018-11-01T05:35:43.407Z,6.1
2018-11-01T05:36:43.374Z,6.11
2018-11-01T05:37:43.572Z,6.11
2018-11-01T05:38:43.522Z,6.11
2018-11-01T05:39:43.369Z,6.08
2018-11-01T05:40:43.590Z,6.11
2018-11-01T05:41:43.386Z,6.07
2018-11-01T05:42:43.417Z,6.12
2018-11-01T05:43:43.388Z,6.1
2018-11-01T05:44:43.397Z,6.14
2018-11-01T05:45:43.453Z,6.13
2018-11-01T05:46:43.726Z,6.14
2018-11-01T05:47:43.344Z,6.13
2018-11-01T05:48:43.405Z,6.14
2018-11-01T05:49:43.586Z,6.09
2018-11-01T05:50:43.356Z,6.1
2018-11-01T05:51:43.392Z,6.06
2018-11-01T05:52:43.381Z,6.06
2018-11-01T05:53:43.387Z,6.14
2018-11-01T05:54:43.339Z,6.14
2018-11-01T05:55:43.419Z,6.15
2018-11-01T05:56:43.380Z,6.16
2018-11-01T05:57:43.329Z,6.15
2018-11-01T05:58:43.407Z,6.15
2018-11-01T05:59:43.734Z,6.14
2018-11-01T06:00:43.337Z,6.14
2018-11-01T06:01:43.367Z,6.1
2018-11-01T06:02:43.348Z,6.12
2018-11-01T06:03:43.395Z,6.09
2018-11-01T06:04:43.353Z,6.09
2018-11-01T06:05:43.969Z,6.07
2018-11-01T06:06:43.348Z,6.12
2018-11-01T06:07:43.347Z,6.1
2018-11-01T06:08:43.354Z,6.09
2018-11-01T06:09:43.373Z,6.06
2018-11-01T06:10:43.321Z,6.04
2018-11-01T06:11:43.320Z,6.08
2018-11-01T06:12:43.711Z,6.06
2018-11-01T06:13:43.355Z,6.09
2018-11-01T06:14:43.346Z,6.1
2018-11-01T06:15:43.326Z,6.07
2018-11-01T06:16:43.438Z,6.09
2018-11-01T06:17:43.374Z,6.1
2018-11-01T06:18:43.855Z,6.11
2018-11-01T06:19:43.367Z,6.11
2018-11-01T06:20:44.379Z,6.09
2018-11-01T06:21:43.291Z,6.07
2018-11-01T06:22:43.303Z,6.08
2018-11-01T06:23:43.321Z,6.12
2018-11-01T06:24:43.294Z,6.1
2018-11-01T06:25:43.673Z,6.09
2018-11-01T06:26:43.391Z,6.09
2018-11-01T06:27:43.391Z,6.06
2018-11-01T06:28:43.264Z,6.08
2018-11-01T06:29:43.329Z,6.15
2018-11-01T06:30:43.395Z,6.17
2018-11-01T06:31:43.313Z,6.16
2018-11-01T06:32:43.294Z,6.18
2018-11-01T06:33:43.302Z,6.19
2018-11-01T06:34:43.313Z,6.19
2018-11-01T06:35:43.272Z,6.17
2018-11-01T06:36:43.241Z,6.17
2018-11-01T06:37:43.326Z,6.16
2018-11-01T06:38:43.288Z,6.2
2018-11-01T06:39:43.295Z,6.22
2018-11-01T06:40:43.335Z,6.21
2018-11-01T06:41:43.505Z,6.21
2018-11-01T06:42:43.316Z,6.21
2018-11-01T06:43:43.644Z,6.2
2018-11-01T06:44:43.625Z,6.18
2018-11-01T06:45:43.350Z,6.18
2018-11-01T06:46:43.245Z,6.22
2018-11-01T06:47:43.251Z,6.19
2018-11-01T06:48:43.398Z,6.2
2018-11-01T06:49:43.260Z,6.2
2018-11-01T06:50:43.268Z,6.2
2018-11-01T06:51:43.308Z,6.21
2018-11-01T06:52:43.568Z,6.2
2018-11-01T06:53:43.252Z,6.21
2018-11-01T06:54:43.273Z,6.2
2018-11-01T06:55:43.582Z,6.19
2018-11-01T06:56:43.241Z,6.21
2018-11-01T06:57:43.268Z,6.23
2018-11-01T06:58:43.724Z,6.33
2018-11-01T06:59:43.289Z,6.33
2018-11-01T07:00:43.305Z,6.33
2018-11-01T07:01:43.252Z,6.36
2018-11-01T07:02:43.302Z,6.35
2018-11-01T07:03:43.282Z,6.35
2018-11-01T07:04:43.243Z,6.37
2018-11-01T07:05:43.991Z,6.38
2018-11-01T07:06:43.255Z,6.36
2018-11-01T07:07:43.877Z,6.34
2018-11-01T07:08:43.313Z,6.35
2018-11-01T07:09:43.646Z,6.34
2018-11-01T07:10:43.249Z,6.23
2018-11-01T07:11:43.253Z,6.29
2018-11-01T07:12:43.238Z,6.27
2018-11-01T07:13:43.304Z,6.28
2018-11-01T07:14:43.213Z,6.28
2018-11-01T07:15:43.216Z,6.26
2018-11-01T07:16:43.214Z,6.26
2018-11-01T07:17:44.286Z,6.23
2018-11-01T07:18:43.314Z,6.22
2018-11-01T07:19:43.213Z,6.26
2018-11-01T07:20:43.254Z,6.24
2018-11-01T07:21:43.308Z,6.27
2018-11-01T07:22:43.264Z,6.23
2018-11-01T07:23:43.223Z,6.23
2018-11-01T07:24:43.195Z,6.24
2018-11-01T07:25:43.599Z,6.28
2018-11-01T07:26:43.248Z,6.29
2018-11-01T07:27:43.213Z,6.3
2018-11-01T07:28:43.237Z,6.32
2018-11-01T07:29:43.204Z,6.33
2018-11-01T07:30:43.212Z,6.34
2018-11-01T07:31:43.207Z,6.34
2018-11-01T07:32:44.549Z,6.34
2018-11-01T07:33:43.270Z,6.36
2018-11-01T07:34:43.196Z,6.33
2018-11-01T07:35:43.196Z,6.3
2018-11-01T07:36:43.205Z,6.3
2018-11-01T07:37:43.213Z,6.32
2018-11-01T07:38:43.220Z,6.3
2018-11-01T07:39:43.563Z,6.3
2018-11-01T07:40:43.201Z,6.35
2018-11-01T07:41:43.193Z,6.38
2018-11-01T07:42:43.218Z,6.38
2018-11-01T07:43:43.232Z,6.44
2018-11-01T07:44:43.179Z,6.4
2018-11-01T07:45:43.248Z,6.42
2018-11-01T07:46:43.203Z,6.41
2018-11-01T07:47:43.301Z,6.42
2018-11-01T07:48:45.020Z,6.38
2018-11-01T07:49:43.188Z,6.4
2018-11-01T07:50:43.197Z,6.42
2018-11-01T07:51:43.312Z,6.4
2018-11-01T07:52:44.264Z,6.41
2018-11-01T07:53:43.241Z,6.44
2018-11-01T07:54:43.159Z,6.43
2018-11-01T07:55:43.169Z,6.46
2018-11-01T07:56:43.173Z,6.47
2018-11-01T07:57:43.194Z,6.44
2018-11-01T07:58:43.179Z,6.45
2018-11-01T07:59:43.192Z,6.48
2018-11-01T08:00:43.178Z,6.47
2018-11-01T08:01:43.204Z,6.47
2018-11-01T08:02:43.198Z,6.45
2018-11-01T08:03:43.169Z,6.43
2018-11-01T08:04:43.199Z,6.4
2018-11-01T08:05:43.562Z,6.39
2018-11-01T08:06:43.175Z,6.37
2018-11-01T08:07:43.290Z,6.39
2018-11-01T08:08:43.229Z,6.4
2018-11-01T08:09:43.383Z,6.38
2018-11-01T08:10:43.204Z,6.42
2018-11-01T08:11:43.583Z,6.39
2018-11-01T08:12:43.157Z,6.39
2018-11-01T08:13:43.202Z,6.47
2018-11-01T08:14:43.260Z,6.47
2018-11-01T08:15:43.339Z,6.43
2018-11-01T08:16:43.879Z,6.42
2018-11-01T08:17:43.141Z,6.45
2018-11-01T08:18:43.268Z,6.51
2018-11-01T08:19:44.256Z,6.49
2018-11-01T08:20:44.864Z,6.5
2018-11-01T08:21:43.281Z,6.49
2018-11-01T08:22:43.497Z,6.47
2018-11-01T08:23:43.155Z,6.5
2018-11-01T08:24:43.463Z,6.49
2018-11-01T08:25:43.182Z,6.49
2018-11-01T08:26:43.156Z,6.49
2018-11-01T08:27:43.475Z,6.52
2018-11-01T08:28:43.382Z,6.53
2018-11-01T08:29:43.230Z,6.5
2018-11-01T08:30:43.534Z,6.51
2018-11-01T08:31:43.171Z,6.52
2018-11-01T08:32:43.425Z,6.53
2018-11-01T08:33:43.352Z,6.53
2018-11-01T08:34:43.252Z,6.55
2018-11-01T08:35:43.216Z,6.56
2018-11-01T08:36:43.234Z,6.6
2018-11-01T08:37:43.160Z,6.58
2018-11-01T08:38:43.163Z,6.58
2018-11-01T08:39:43.158Z,6.58
2018-11-01T08:40:43.939Z,6.58
2018-11-01T08:41:43.128Z,6.55
2018-11-01T08:42:43.515Z,6.56
2018-11-01T08:43:43.179Z,6.61
2018-11-01T08:44:43.692Z,6.6
2018-11-01T08:45:43.197Z,6.61
2018-11-01T08:46:43.248Z,6.62
2018-11-01T08:47:43.574Z,6.62
2018-11-01T08:48:43.191Z,6.63
2018-11-01T08:49:43.152Z,6.62
2018-11-01T08:50:43.273Z,6.61
2018-11-01T08:51:43.165Z,6.6
2018-11-01T08:52:43.176Z,6.59
2018-11-01T08:53:43.192Z,6.61
2018-11-01T08:54:43.183Z,6.6
2018-11-01T08:55:43.510Z,6.62
2018-11-01T08:56:43.097Z,6.62
2018-11-01T08:57:43.517Z,6.62
2018-11-01T08:58:43.206Z,6.63
2018-11-01T08:59:43.153Z,6.65
2018-11-01T09:00:43.442Z,6.64
2018-11-01T09:01:43.155Z,6.58
2018-11-01T09:02:43.138Z,6.61
2018-11-01T09:03:43.219Z,6.59
2018-11-01T09:04:43.225Z,6.61
2018-11-01T09:05:43.213Z,6.63
2018-11-01T09:06:43.124Z,6.63
2018-11-01T09:07:45.484Z,6.63
2018-11-01T09:08:43.072Z,6.63
2018-11-01T09:09:43.370Z,6.65
2018-11-01T09:10:43.087Z,6.67
2018-11-01T09:11:43.610Z,6.66
2018-11-01T09:12:43.851Z,6.63
2018-11-01T09:13:43.114Z,6.65
2018-11-01T09:14:43.351Z,6.63
2018-11-01T09:15:43.306Z,6.64
2018-11-01T09:16:43.247Z,6.62
2018-11-01T09:17:43.563Z,6.64
2018-11-01T09:18:43.198Z,6.64
2018-11-01T09:19:43.173Z,6.64
2018-11-01T09:20:43.414Z,6.64
2018-11-01T09:21:43.448Z,6.64
2018-11-01T09:22:43.216Z,6.64
2018-11-01T09:23:43.462Z,6.64
2018-11-01T09:24:43.269Z,6.64
2018-11-01T09:25:43.120Z,6.65
2018-11-01T09:26:43.534Z,6.65
2018-11-01T09:27:43.114Z,6.63
2018-11-01T09:28:43.049Z,6.64
2018-11-01T09:29:43.075Z,6.66
2018-11-01T09:30:43.146Z,6.64
2018-11-01T09:31:43.248Z,6.66
2018-11-01T09:32:43.295Z,6.65
2018-11-01T09:33:43.119Z,6.69
2018-11-01T09:34:43.080Z,6.66
2018-11-01T09:35:44.058Z,6.65
2018-11-01T09:36:43.113Z,6.62
2018-11-01T09:37:43.157Z,6.64
2018-11-01T09:38:43.014Z,6.61
2018-11-01T09:39:43.064Z,6.61
2018-11-01T09:40:43.183Z,6.59
2018-11-01T09:41:43.190Z,6.6
2018-11-01T09:42:43.143Z,6.58
2018-11-01T09:43:43.020Z,6.59
2018-11-01T09:44:43.056Z,6.6
2018-11-01T09:45:43.164Z,6.61
2018-11-01T09:46:46.746Z,6.61
2018-11-01T09:48:43.294Z,6.61
2018-11-01T09:49:43.006Z,6.61
2018-11-01T09:50:43.127Z,6.63
2018-11-01T09:51:43.054Z,6.61
2018-11-01T09:52:42.997Z,6.62
2018-11-01T09:53:43.131Z,6.62
2018-11-01T09:54:43.430Z,6.65
2018-11-01T09:55:44.463Z,6.63
2018-11-01T09:56:42.994Z,6.64
2018-11-01T09:57:43.083Z,6.63
2018-11-01T09:58:43.852Z,6.64
2018-11-01T09:59:43.237Z,6.67
2018-11-01T10:00:43.083Z,6.68
2018-11-01T10:01:43.212Z,6.65
2018-11-01T10:02:43.064Z,6.64
2018-11-01T10:03:43.225Z,6.68
2018-11-01T10:04:43.244Z,6.64
2018-11-01T10:05:43.252Z,6.65
2018-11-01T10:06:43.512Z,6.66
2018-11-01T10:07:43.187Z,6.65
2018-11-01T10:08:43.159Z,6.65
2018-11-01T10:09:43.188Z,6.66
2018-11-01T10:10:43.084Z,6.67
2018-11-01T10:11:42.997Z,6.67
2018-11-01T10:12:43.110Z,6.68
2018-11-01T10:13:43.140Z,6.7
2018-11-01T10:14:42.954Z,6.7
2018-11-01T10:15:45.526Z,6.75
2018-11-01T10:16:45.877Z,6.75
2018-11-01T10:17:47.965Z,6.75
2018-11-01T10:18:43.653Z,6.79
2018-11-01T10:19:43.108Z,6.78
2018-11-01T10:20:43.153Z,6.77
2018-11-01T10:21:43.789Z,6.78
2018-11-01T10:22:44.771Z,6.78
2018-11-01T10:23:43.320Z,6.77
2018-11-01T10:24:43.369Z,6.79
2018-11-01T10:25:43.457Z,6.8
2018-11-01T10:26:43.639Z,6.79
2018-11-01T10:27:44.578Z,6.81
2018-11-01T10:28:42.968Z,6.8
2018-11-01T10:29:43.191Z,6.83
2018-11-01T10:30:43.321Z,6.88
2018-11-01T10:31:43.067Z,6.9
2018-11-01T10:32:42.947Z,6.9
2018-11-01T10:33:43.411Z,6.9
2018-11-01T10:34:43.856Z,6.89
2018-11-01T10:35:42.995Z,6.86
2018-11-01T10:36:46.256Z,6.85
2018-11-01T10:37:43.587Z,6.85
2018-11-01T10:38:43.095Z,6.84
2018-11-01T10:39:42.943Z,6.84
2018-11-01T10:40:43.414Z,6.87
2018-11-01T10:41:49.160Z,6.86
2018-11-01T10:42:43.314Z,6.88
2018-11-01T10:43:43.551Z,6.88
2018-11-01T10:44:43.807Z,6.89
2018-11-01T10:45:43.243Z,6.9
2018-11-01T10:46:43.223Z,6.87
2018-11-01T10:47:44.146Z,6.88
2018-11-01T10:48:43.248Z,6.89
2018-11-01T10:49:42.999Z,6.88
2018-11-01T10:50:45.324Z,6.89
2018-11-01T10:51:43.223Z,6.92
2018-11-01T10:52:43.047Z,6.92
2018-11-01T10:53:43.933Z,6.94
2018-11-01T10:54:43.005Z,6.94
2018-11-01T10:55:43.582Z,6.98
2018-11-01T10:56:42.886Z,6.95
2018-11-01T10:57:42.924Z,6.96
2018-11-01T10:58:43.304Z,6.96
2018-11-01T10:59:43.066Z,6.99
2018-11-01T11:00:46.659Z,6.96
2018-11-01T11:01:42.970Z,6.99
2018-11-01T11:02:43.331Z,6.99
2018-11-01T11:03:43.273Z,7.01
2018-11-01T11:04:43.252Z,7.02
2018-11-01T11:05:42.899Z,7.02
2018-11-01T11:06:43.411Z,6.99
2018-11-01T11:07:42.943Z,6.94
2018-11-01T11:08:43.026Z,6.98
2018-11-01T11:09:43.425Z,7
2018-11-01T11:10:43.076Z,7.01
2018-11-01T11:11:43.277Z,7
2018-11-01T11:12:43.204Z,7.01
2018-11-01T11:13:42.974Z,7.03
2018-11-01T11:14:43.054Z,7.01
2018-11-01T11:15:43.073Z,7.01
2018-11-01T11:16:42.909Z,6.98
2018-11-01T11:17:42.971Z,7
2018-11-01T11:18:43.465Z,7.03
2018-11-01T11:19:42.907Z,7.06
2018-11-01T11:20:45.998Z,7.06
2018-11-01T11:21:43.247Z,7.08
2018-11-01T11:22:43.003Z,7.07
2018-11-01T11:23:44.243Z,7.07
2018-11-01T11:24:42.889Z,7.08
2018-11-01T11:25:42.966Z,7.08
2018-11-01T11:26:42.963Z,7.11
2018-11-01T11:27:43.217Z,7.1
2018-11-01T11:28:42.966Z,7.11
2018-11-01T11:29:42.895Z,7.09
2018-11-01T11:30:56.414Z,7.08
2018-11-01T11:32:42.887Z,7.12
2018-11-01T11:33:43.034Z,7.12
2018-11-01T11:34:43.082Z,7.13
2018-11-01T11:35:43.802Z,7.14
2018-11-01T11:36:42.888Z,7.13
2018-11-01T11:37:43.059Z,7.13
2018-11-01T11:38:42.958Z,7.14
2018-11-01T11:39:46.224Z,7.15
2018-11-01T11:40:43.238Z,7.16
2018-11-01T11:41:44.346Z,7.17
2018-11-01T11:42:43.178Z,7.17
2018-11-01T11:43:42.870Z,7.17
2018-11-01T11:44:43.028Z,7.19
2018-11-01T11:45:43.482Z,7.18
2018-11-01T11:46:42.869Z,7.2
2018-11-01T11:47:44.017Z,7.19
2018-11-01T11:48:51.509Z,7.18
2018-11-01T11:49:46.496Z,7.18
2018-11-01T11:50:42.968Z,7.18
2018-11-01T11:51:43.089Z,7.18
2018-11-01T11:52:42.834Z,7.19
2018-11-01T11:53:43.255Z,7.19
2018-11-01T11:54:45.792Z,7.23
2018-11-01T11:55:43.045Z,7.23
2018-11-01T11:56:42.929Z,7.19
2018-11-01T11:57:43.053Z,7.18
2018-11-01T11:58:42.857Z,7.16
2018-11-01T11:59:42.868Z,7.18
2018-11-01T12:00:43.230Z,7.18
2018-11-01T12:01:43.004Z,7.16
2018-11-01T12:02:43.153Z,7.16
2018-11-01T12:03:42.849Z,7.18
2018-11-01T12:04:42.944Z,7.17
2018-11-01T12:05:43.528Z,7.19
2018-11-01T12:06:43.105Z,7.19
2018-11-01T12:07:43.204Z,7.19
2018-11-01T12:08:43.314Z,7.22
2018-11-01T12:09:43.071Z,7.22
2018-11-01T12:10:42.866Z,7.24
2018-11-01T12:11:42.821Z,7.22
2018-11-01T12:12:43.159Z,7.26
2018-11-01T12:13:43.065Z,7.27
2018-11-01T12:14:42.864Z,7.27
2018-11-01T12:15:42.798Z,7.3
2018-11-01T12:16:42.803Z,7.31
2018-11-01T12:17:42.801Z,7.31
2018-11-01T12:18:42.872Z,7.31
2018-11-01T12:19:42.802Z,7.29
2018-11-01T12:20:42.794Z,7.31
2018-11-01T12:21:42.813Z,7.33
2018-11-01T12:22:42.852Z,7.35
2018-11-01T12:23:43.198Z,7.34
2018-11-01T12:24:42.854Z,7.35
2018-11-01T12:25:42.992Z,7.37
2018-11-01T12:26:43.199Z,7.34
2018-11-01T12:27:43.033Z,7.31
2018-11-01T12:28:44.445Z,7.28
2018-11-01T12:29:42.954Z,7.25
2018-11-01T12:30:42.770Z,7.2
2018-11-01T12:31:42.779Z,7.2
2018-11-01T12:32:42.783Z,7.22
2018-11-01T12:33:43.179Z,7.21
2018-11-01T12:34:42.849Z,7.22
2018-11-01T12:35:43.898Z,7.23
2018-11-01T12:36:42.763Z,7.23
2018-11-01T12:37:42.818Z,7.22
2018-11-01T12:38:42.774Z,7.24
2018-11-01T12:39:42.912Z,7.26
2018-11-01T12:40:42.784Z,7.28
2018-11-01T12:41:44.018Z,7.3
2018-11-01T12:42:42.792Z,7.27
2018-11-01T12:43:42.774Z,7.29
2018-11-01T12:44:42.795Z,7.26
2018-11-01T12:45:42.760Z,7.3
2018-11-01T12:46:43.068Z,7.29
2018-11-01T12:47:42.756Z,7.31
2018-11-01T12:48:42.799Z,7.32
2018-11-01T12:49:43.611Z,7.3
2018-11-01T12:50:42.921Z,7.3
2018-11-01T12:51:42.744Z,7.32
2018-11-01T12:52:42.992Z,7.31
2018-11-01T12:53:42.715Z,7.3
2018-11-01T12:54:42.792Z,7.33
2018-11-01T12:55:43.129Z,7.34
2018-11-01T12:56:42.753Z,7.36
2018-11-01T12:57:42.793Z,7.37
2018-11-01T12:58:42.831Z,7.38
2018-11-01T12:59:42.754Z,7.41
2018-11-01T13:00:42.793Z,7.41
2018-11-01T13:01:42.747Z,7.44
2018-11-01T13:02:44.597Z,7.4
2018-11-01T13:03:43.104Z,7.41
2018-11-01T13:04:42.742Z,7.42
2018-11-01T13:05:43.140Z,7.41
2018-11-01T13:06:43.161Z,7.43
2018-11-01T13:07:42.784Z,7.4
2018-11-01T13:08:42.812Z,7.43
2018-11-01T13:09:42.845Z,7.43
2018-11-01T13:10:43.412Z,7.44
2018-11-01T13:11:42.757Z,7.43
2018-11-01T13:12:42.806Z,7.42
2018-11-01T13:13:42.784Z,7.46
2018-11-01T13:14:43.125Z,7.48
2018-11-01T13:15:42.844Z,7.51
2018-11-01T13:16:42.869Z,7.56
2018-11-01T13:17:42.859Z,7.57
2018-11-01T13:18:42.731Z,7.47
2018-11-01T13:19:43.036Z,7.48
2018-11-01T13:20:43.337Z,7.54
2018-11-01T13:21:42.792Z,7.47
2018-11-01T13:22:42.780Z,7.57
2018-11-01T13:23:42.719Z,7.54
2018-11-01T13:24:42.817Z,7.58